aviador You're here:

KHKS Decoded Metar

JACKSON/HAWKINS in MS, USA
Report Time2017-09-24 00:53:00
UTC Time2017-09-24 01:26:24
Flight Rules vfr VFR
Wind100° at 04 kt
W.Decomp.*RWY 11: 3.9 kt HW 0.7 kt LCW
RWY 16: 2.0 kt HW 3.5 kt LCW
W.Rank100° ranks 31
Current wind is below 100° avg. (5.5)
Visibility9999 m
Phenomena:N/A
Clouds:N/A
Expected CloudBase > 2,400 ft AGL from Temp-Dew spread
CeilingNone
Temp27°C (ISA +13)
Dew Point21°C (70% RH)
Heat Index28.9°C
QNH1014 hPa
Density Alt2,113 ft
Elevation354 ft
Report Wrong Elevation
Raw Report
KHKS 240053Z 10004KT 10SM CLR 27/21 A2995 RMK AO2 SLP131
T02720211=

Extra information for KHKS:More info

Metar Taf Metar & Taf Last 4 Metars F.Rules Stats Wind Profile Meteogram Temp Stats Airport Information Weather charts Add Link Nearby VenuesMetar ALERT Operation Metar Decoded Social comments

AIRNAV info for KHKS